createdAt,value
2019-04-05T06:21:37.420Z,93.70
2019-04-05T06:24:07.399Z,92.80
2019-04-05T06:26:37.211Z,93.70
2019-04-05T06:29:07.026Z,93.40
2019-04-05T06:31:36.889Z,94.00
2019-04-05T06:34:06.688Z,94.00
2019-04-05T06:36:36.477Z,92.70
2019-04-05T06:39:07.822Z,92.30
2019-04-05T06:41:37.616Z,93.00
2019-04-05T06:44:07.509Z,92.70
2019-04-05T06:46:37.370Z,91.50
2019-04-05T06:49:07.183Z,91.20
2019-04-05T06:51:36.995Z,91.80
2019-04-05T06:54:06.788Z,91.80
2019-04-05T06:56:36.599Z,91.50
2019-04-05T06:59:06.411Z,91.10
2019-04-05T07:01:36.229Z,90.60
2019-04-05T07:04:06.108Z,91.00
2019-04-05T07:06:35.917Z,90.90
2019-04-05T07:09:06.168Z,91.30
2019-04-05T07:11:36.049Z,91.10
2019-04-05T07:14:05.859Z,90.50
2019-04-05T07:16:35.697Z,91.20
2019-04-05T07:19:05.516Z,91.20
2019-04-05T07:21:35.333Z,90.80
2019-04-05T07:24:05.297Z,90.90
2019-04-05T07:26:35.107Z,91.20
2019-04-05T07:29:04.924Z,92.00
2019-04-05T07:31:34.820Z,90.70
2019-04-05T07:34:04.632Z,89.50
2019-04-05T07:36:34.448Z,89.40
2019-04-05T07:39:06.315Z,89.20
2019-04-05T07:41:36.188Z,88.30
2019-04-05T07:44:05.997Z,86.80
2019-04-05T07:46:35.956Z,87.30
2019-04-05T07:49:05.754Z,87.70
2019-04-05T07:51:35.635Z,88.00
2019-04-05T07:54:05.447Z,88.70
2019-04-05T07:56:35.327Z,89.40
2019-04-05T07:59:05.155Z,89.90
2019-04-05T08:01:34.965Z,89.40
2019-04-05T08:04:04.839Z,89.30
2019-04-05T08:06:34.815Z,90.00
2019-04-05T08:09:10.132Z,89.10
2019-04-05T08:11:40.375Z,89.80
2019-04-05T08:14:10.735Z,89.70
2019-04-05T08:16:40.708Z,88.20
2019-04-05T08:19:10.649Z,87.90
2019-04-05T08:21:40.464Z,87.10
2019-04-05T08:24:10.343Z,88.30
2019-04-05T08:26:40.212Z,87.30
2019-04-05T08:29:10.101Z,89.00
2019-04-05T08:31:39.984Z,88.30
2019-04-05T08:34:09.833Z,86.50
2019-04-05T08:36:39.784Z,86.80
2019-04-05T08:39:09.948Z,85.40
2019-04-05T08:41:39.823Z,86.00
2019-04-05T08:44:09.634Z,87.90
2019-04-05T08:46:39.523Z,86.50
2019-04-05T08:49:11.428Z,86.70
2019-04-05T08:51:41.111Z,88.10
2019-04-05T08:54:10.912Z,85.50
2019-04-05T08:56:40.780Z,84.80
2019-04-05T08:59:10.656Z,85.20
2019-04-05T09:01:40.467Z,84.20
2019-04-05T09:04:10.343Z,86.90
2019-04-05T09:06:40.233Z,85.60
2019-04-05T09:09:10.105Z,85.30
2019-04-05T09:11:39.995Z,85.00
2019-04-05T09:14:09.874Z,84.50
2019-04-05T09:16:39.829Z,84.10
2019-04-05T09:19:22.541Z,86.30
2019-04-05T09:21:41.155Z,83.30
2019-04-05T09:24:11.113Z,84.60
2019-04-05T09:26:41.009Z,86.60
2019-04-05T09:29:10.889Z,83.80
2019-04-05T09:31:40.896Z,84.30
2019-04-05T09:34:10.778Z,86.80
2019-04-05T09:36:40.604Z,83.50
2019-04-05T09:39:15.303Z,83.60
2019-04-05T09:41:42.945Z,82.70
2019-04-05T09:44:12.908Z,83.60
2019-04-05T09:46:48.142Z,83.90
2019-04-05T09:49:14.383Z,85.90
2019-04-05T09:51:44.264Z,86.10
2019-04-05T09:54:14.166Z,85.40
2019-04-05T09:56:44.148Z,85.50
2019-04-05T09:59:14.064Z,88.40
2019-04-05T10:01:43.953Z,89.80
2019-04-05T10:04:13.796Z,87.20
2019-04-05T10:06:43.695Z,88.30
2019-04-05T10:09:14.468Z,89.00
2019-04-05T10:11:44.445Z,89.70
2019-04-05T10:14:14.454Z,88.20
2019-04-05T10:16:44.260Z,87.30
2019-04-05T10:19:14.253Z,88.20
2019-04-05T10:21:44.131Z,87.10
2019-04-05T10:24:15.029Z,88.10
2019-04-05T10:26:44.982Z,86.80
2019-04-05T10:29:14.819Z,87.90
2019-04-05T10:31:44.700Z,88.40
2019-04-05T10:34:14.668Z,89.90
2019-04-05T10:36:44.639Z,87.50
2019-04-05T10:39:14.508Z,88.40
2019-04-05T10:41:44.325Z,86.60
2019-04-05T10:44:15.948Z,87.20
2019-04-05T10:46:45.814Z,87.90
2019-04-05T10:49:15.644Z,84.30
2019-04-05T10:51:45.535Z,84.90
2019-04-05T10:54:15.429Z,83.80
2019-04-05T10:56:45.250Z,84.40
2019-04-05T10:59:15.051Z,84.50
2019-04-05T11:01:45.087Z,82.00
2019-04-05T11:04:16.809Z,81.70
2019-04-05T11:06:46.502Z,80.80
2019-04-05T11:09:16.384Z,83.30
2019-04-05T11:11:46.344Z,80.00
2019-04-05T11:14:16.225Z,79.50
2019-04-05T11:16:57.901Z,82.40
2019-04-05T11:19:17.736Z,78.70
2019-04-05T11:21:48.561Z,81.50
2019-04-05T11:24:19.101Z,80.40
2019-04-05T11:26:48.919Z,75.30
2019-04-05T11:29:18.742Z,77.70
2019-04-05T11:31:57.000Z,76.80
2019-04-05T11:34:20.268Z,78.90
2019-04-05T11:36:50.235Z,77.20
2019-04-05T11:39:20.692Z,75.90
2019-04-05T11:41:51.414Z,75.30
2019-04-05T11:44:22.248Z,75.30
2019-04-05T11:46:52.067Z,73.70
2019-04-05T11:49:21.892Z,72.60
2019-04-05T11:51:52.006Z,73.80
2019-04-05T11:54:22.049Z,72.60
2019-04-05T11:56:52.000Z,73.80
2019-04-05T11:59:21.875Z,73.10
2019-04-05T12:01:56.032Z,74.60
2019-04-05T12:04:25.935Z,73.70
2019-04-05T12:06:55.748Z,70.20
2019-04-05T12:09:25.572Z,72.10
2019-04-05T12:11:55.492Z,72.30
2019-04-05T12:14:30.338Z,69.30
2019-04-05T12:16:56.839Z,72.20
2019-04-05T12:19:26.769Z,69.00
2019-04-05T12:21:56.599Z,72.20
2019-04-05T12:24:26.417Z,71.80
2019-04-05T12:26:56.367Z,69.60
2019-04-05T12:29:26.344Z,67.80
2019-04-05T12:31:56.782Z,65.90
2019-04-05T12:34:28.579Z,66.20
2019-04-05T12:36:58.456Z,69.50
2019-04-05T12:39:28.410Z,69.60
2019-04-05T12:41:58.316Z,64.10
2019-04-05T12:44:28.273Z,65.50
2019-04-05T12:46:58.168Z,66.00
2019-04-05T12:49:28.119Z,66.60
2019-04-05T12:51:58.234Z,65.50
2019-04-05T12:54:28.055Z,65.60
2019-04-05T12:56:58.573Z,64.70
2019-04-05T12:59:28.589Z,65.60
2019-04-05T13:01:59.728Z,67.20
2019-04-05T13:04:29.668Z,65.10
2019-04-05T13:06:59.465Z,64.70
2019-04-05T13:09:29.361Z,65.90
2019-04-05T13:11:59.339Z,65.30
2019-04-05T13:14:29.141Z,63.00
2019-04-05T13:17:01.566Z,63.60
2019-04-05T13:19:30.735Z,65.00
2019-04-05T13:22:02.943Z,63.50
2019-04-05T13:24:32.623Z,64.40
2019-04-05T13:27:02.423Z,66.30
2019-04-05T13:29:32.362Z,64.40
2019-04-05T13:32:02.370Z,66.10
2019-04-05T13:34:32.283Z,65.10
2019-04-05T13:37:02.220Z,64.00
2019-04-05T13:39:32.111Z,66.70
2019-04-05T13:42:02.512Z,66.00
2019-04-05T13:44:32.561Z,65.30
2019-04-05T13:47:03.612Z,66.20
2019-04-05T13:49:33.502Z,66.00
2019-04-05T13:52:03.430Z,65.00
2019-04-05T13:54:33.242Z,64.50
2019-04-05T13:57:03.464Z,65.00
2019-04-05T13:59:33.355Z,66.10
2019-04-05T14:02:06.459Z,64.20
2019-04-05T14:04:34.638Z,63.40
2019-04-05T14:07:04.445Z,63.20
2019-04-05T14:09:34.401Z,63.70
2019-04-05T14:12:04.783Z,63.40
2019-04-05T14:14:34.576Z,61.30
2019-04-05T14:17:04.529Z,59.20
2019-04-05T14:19:34.340Z,57.60
2019-04-05T14:22:08.995Z,57.80
2019-04-05T14:24:36.037Z,55.60
2019-04-05T14:27:05.850Z,56.80
2019-04-05T14:29:35.764Z,56.90
2019-04-05T14:32:19.724Z,59.20
2019-04-05T14:34:37.346Z,58.30
2019-04-05T14:37:07.145Z,60.00
2019-04-05T14:39:36.960Z,60.00
2019-04-05T14:42:09.984Z,61.30
2019-04-05T14:44:38.260Z,60.70
2019-04-05T14:47:08.206Z,60.90
2019-04-05T14:49:38.113Z,60.40
2019-04-05T14:52:08.005Z,61.80
2019-04-05T14:54:37.873Z,63.00
2019-04-05T14:57:08.783Z,63.20
2019-04-05T14:59:38.674Z,62.90
2019-04-05T15:02:08.567Z,64.00
2019-04-05T15:04:38.476Z,63.30
2019-04-05T15:07:08.278Z,64.90
2019-04-05T15:09:38.098Z,65.10
2019-04-05T15:12:07.901Z,66.10
2019-04-05T15:14:37.764Z,64.50
2019-04-05T15:17:07.568Z,64.40
2019-04-05T15:19:37.508Z,64.60
2019-04-05T15:22:10.703Z,64.90
2019-04-05T15:24:39.018Z,65.00
2019-04-05T15:27:08.986Z,65.90
2019-04-05T15:29:39.967Z,65.30
2019-04-05T15:32:09.991Z,65.00
2019-04-05T15:34:39.906Z,65.00
2019-04-05T15:37:09.929Z,64.50
2019-04-05T15:39:39.789Z,65.70
2019-04-05T15:42:09.671Z,64.60
2019-04-05T15:44:41.415Z,66.30
2019-04-05T15:47:13.628Z,65.80
2019-04-05T15:49:43.239Z,65.20
2019-04-05T15:52:18.887Z,64.40
2019-04-05T15:54:44.765Z,65.10
2019-04-05T15:57:14.567Z,64.60
2019-04-05T15:59:45.229Z,65.70
2019-04-05T16:02:15.269Z,66.60
2019-04-05T16:04:45.158Z,65.80
2019-04-05T16:07:15.058Z,66.30
2019-04-05T16:09:44.946Z,66.60
2019-04-05T16:12:16.076Z,67.20
2019-04-05T16:14:46.031Z,66.90
2019-04-05T16:17:15.954Z,66.00
2019-04-05T16:19:45.839Z,65.70
2019-04-05T16:22:15.881Z,66.50
2019-04-05T16:24:45.972Z,66.30
2019-04-05T16:27:15.859Z,66.20
2019-04-05T16:29:45.735Z,66.30
2019-04-05T16:32:15.696Z,67.10
2019-04-05T16:34:45.609Z,66.90
2019-04-05T16:37:15.493Z,66.90
2019-04-05T16:39:45.444Z,66.70
2019-04-05T16:42:15.463Z,66.30
2019-04-05T16:44:45.267Z,67.20
2019-04-05T16:47:15.143Z,67.30
2019-04-05T16:49:45.041Z,66.80
2019-04-05T16:52:14.919Z,67.80
2019-04-05T16:54:44.960Z,67.00
2019-04-05T16:57:14.907Z,66.90
2019-04-05T16:59:45.898Z,68.00
2019-04-05T17:02:15.847Z,68.30
2019-04-05T17:04:45.823Z,68.60
2019-04-05T17:07:15.708Z,69.30
2019-04-05T17:09:45.601Z,69.10
2019-04-05T17:12:15.479Z,69.50
2019-04-05T17:14:45.413Z,68.80
2019-04-05T17:17:15.279Z,68.40
2019-04-05T17:19:45.148Z,68.10
2019-04-05T17:22:15.026Z,67.50
2019-04-05T17:24:44.888Z,68.70
2019-04-05T17:27:14.756Z,68.20
2019-04-05T17:29:44.698Z,69.00
2019-04-05T17:32:14.501Z,69.70
2019-04-05T17:34:44.303Z,68.80
2019-04-05T17:37:14.274Z,68.20
2019-04-05T17:39:44.158Z,68.20
2019-04-05T17:42:13.985Z,68.50
2019-04-05T17:44:43.803Z,68.50
2019-04-05T17:47:13.678Z,68.70
2019-04-05T17:49:43.560Z,69.10
2019-04-05T17:52:13.569Z,69.60
2019-04-05T17:54:43.398Z,70.60
2019-04-05T17:57:13.361Z,71.50
2019-04-05T17:59:43.414Z,71.60
2019-04-05T18:02:13.246Z,72.10
2019-04-05T18:04:43.059Z,71.80
2019-04-05T18:07:13.025Z,71.40
2019-04-05T18:09:43.041Z,71.70
2019-04-05T18:12:13.011Z,72.00
2019-04-05T18:14:42.871Z,71.70
2019-04-05T18:17:12.704Z,72.40
2019-04-05T18:19:42.662Z,72.60
2019-04-05T18:22:12.604Z,73.70
2019-04-05T18:24:42.504Z,73.10
2019-04-05T18:27:12.383Z,72.50
2019-04-05T18:29:42.349Z,73.10
2019-04-05T18:32:12.323Z,73.30
2019-04-05T18:34:42.289Z,73.70
2019-04-05T18:37:12.249Z,74.30
2019-04-05T18:39:42.193Z,74.50
2019-04-05T18:42:12.037Z,74.70
2019-04-05T18:44:41.980Z,75.20
2019-04-05T18:47:11.942Z,75.50
2019-04-05T18:49:41.901Z,75.80
2019-04-05T18:52:11.779Z,75.80
2019-04-05T18:54:41.801Z,75.50
2019-04-05T18:57:13.971Z,74.60
2019-04-05T18:59:43.274Z,74.60
2019-04-05T19:02:13.239Z,74.90
2019-04-05T19:04:43.153Z,74.80
2019-04-05T19:07:13.114Z,75.80
2019-04-05T19:09:43.218Z,75.40
2019-04-05T19:12:13.186Z,75.90
2019-04-05T19:14:43.086Z,76.60
2019-04-05T19:17:23.228Z,77.10
2019-04-05T19:19:44.394Z,77.40
2019-04-05T19:22:14.282Z,77.80
2019-04-05T19:24:44.229Z,78.10
2019-04-05T19:27:14.180Z,78.20
2019-04-05T19:29:44.232Z,78.10
2019-04-05T19:49:55.505Z,80.10
2019-04-05T19:52:25.410Z,80.70
2019-04-05T19:54:55.288Z,81.10
2019-04-05T19:57:25.224Z,81.30
2019-04-05T19:59:55.283Z,81.80
2019-04-05T20:02:25.130Z,82.20
2019-04-05T20:04:55.095Z,82.70
2019-04-05T20:07:24.999Z,83.30
2019-04-05T20:09:54.969Z,83.60
2019-04-05T20:12:24.791Z,83.90
2019-04-05T20:14:54.769Z,84.20
2019-04-05T20:17:24.593Z,84.30
2019-04-05T20:19:54.499Z,84.60
2019-04-05T20:22:24.481Z,84.90
2019-04-05T20:24:54.374Z,84.90
2019-04-05T20:27:24.352Z,85.00
2019-04-05T20:29:54.192Z,85.40
2019-04-05T20:32:25.080Z,85.50
2019-04-05T20:34:54.915Z,85.30
2019-04-05T20:37:24.803Z,85.50
2019-04-05T20:39:54.707Z,85.20
2019-04-05T20:42:24.606Z,85.50
2019-04-05T20:44:54.597Z,85.50
2019-04-05T20:47:24.482Z,85.30
2019-04-05T20:49:54.384Z,85.30
2019-04-05T20:52:24.206Z,85.30
2019-04-05T20:54:55.204Z,85.50
2019-04-05T20:57:25.023Z,85.50
2019-04-05T20:59:54.905Z,85.10
2019-04-05T21:02:24.796Z,85.40
2019-04-05T21:04:54.608Z,85.60
2019-04-05T21:07:24.488Z,85.70
2019-04-05T21:09:54.337Z,85.90
2019-04-05T21:12:24.227Z,86.00
2019-04-05T21:14:54.100Z,85.20
2019-04-05T21:17:23.993Z,85.40
2019-04-05T21:19:53.808Z,85.10
2019-04-05T21:22:23.637Z,85.20
2019-04-05T21:24:53.530Z,85.20
2019-04-05T21:27:23.422Z,85.60
2019-04-05T21:29:53.305Z,85.20
2019-04-05T21:32:23.136Z,85.30
2019-04-05T21:34:52.949Z,86.00
2019-04-05T21:37:22.865Z,85.30
2019-04-05T21:39:52.859Z,85.10
2019-04-05T21:42:22.679Z,85.10
2019-04-05T21:44:52.553Z,84.80
2019-04-05T21:50:27.839Z,85.30
2019-04-05T21:52:57.659Z,84.60
2019-04-05T21:55:27.529Z,84.90
2019-04-05T21:57:57.369Z,84.90
2019-04-05T22:00:34.622Z,85.20
2019-04-05T22:03:06.054Z,84.60
2019-04-05T22:05:35.879Z,84.50
2019-04-05T22:08:05.737Z,84.80
2019-04-05T22:10:35.696Z,85.30
2019-04-05T22:13:05.807Z,85.20
2019-04-05T22:15:35.680Z,84.80
2019-04-05T22:18:05.586Z,84.90
2019-04-05T22:20:35.482Z,84.90
2019-04-05T22:23:05.813Z,84.90
2019-04-05T22:25:36.830Z,84.70
2019-04-05T22:28:07.179Z,84.70
2019-04-05T22:30:37.536Z,84.50
2019-04-05T22:33:07.394Z,84.30
2019-04-05T22:35:37.412Z,84.50
2019-04-05T22:38:07.279Z,84.60
2019-04-05T22:40:37.122Z,84.40
2019-04-05T22:43:07.027Z,84.40
2019-04-05T22:45:36.924Z,84.50
2019-04-05T22:48:06.894Z,84.50
2019-04-05T22:50:36.872Z,84.60
2019-04-05T22:53:06.770Z,85.00
2019-04-05T22:55:36.671Z,84.90
2019-04-05T22:58:06.560Z,85.30
2019-04-05T23:00:36.545Z,85.20
2019-04-05T23:03:06.385Z,85.20
2019-04-05T23:05:36.222Z,85.50
2019-04-05T23:08:06.043Z,85.40
2019-04-05T23:10:35.890Z,85.70
2019-04-05T23:13:05.793Z,86.10
2019-04-05T23:15:35.733Z,86.20
2019-04-05T23:18:05.555Z,86.40
2019-04-05T23:20:35.397Z,86.40
2019-04-05T23:23:05.227Z,86.50
2019-04-05T23:25:35.095Z,86.60
2019-04-05T23:28:05.002Z,86.50
2019-04-05T23:30:36.098Z,86.40
2019-04-05T23:33:06.075Z,86.20
2019-04-05T23:35:35.924Z,86.40
2019-04-05T23:38:05.750Z,86.20
2019-04-05T23:40:35.733Z,86.40
2019-04-05T23:43:05.569Z,86.40
2019-04-05T23:45:36.467Z,86.20
2019-04-05T23:48:06.384Z,86.20
2019-04-05T23:50:37.284Z,85.50
2019-04-05T23:53:07.198Z,85.80
2019-04-05T23:55:37.104Z,85.10
2019-04-05T23:58:06.956Z,84.80
